sensor_id;sensor_type;location;lat;lon;timestamp;P1;durP1;ratioP1;P2;durP2;ratioP2
4754;SDS011;2391;47.212;7.542;2022-10-16T00:01:51;8.03;;;1.90;;
4754;SDS011;2391;47.212;7.542;2022-10-16T00:04:17;5.20;;;1.80;;
4754;SDS011;2391;47.212;7.542;2022-10-16T00:06:44;7.33;;;2.50;;
4754;SDS011;2391;47.212;7.542;2022-10-16T00:09:10;5.03;;;1.70;;
4754;SDS011;2391;47.212;7.542;2022-10-16T00:11:38;5.20;;;2.17;;
4754;SDS011;2391;47.212;7.542;2022-10-16T00:14:06;5.10;;;3.00;;
4754;SDS011;2391;47.212;7.542;2022-10-16T00:16:34;7.43;;;4.23;;
4754;SDS011;2391;47.212;7.542;2022-10-16T00:19:00;3.87;;;3.53;;
4754;SDS011;2391;47.212;7.542;2022-10-16T00:21:28;7.17;;;3.33;;
4754;SDS011;2391;47.212;7.542;2022-10-16T00:23:59;6.17;;;3.57;;
4754;SDS011;2391;47.212;7.542;2022-10-16T00:26:28;5.97;;;2.87;;
4754;SDS011;2391;47.212;7.542;2022-10-16T00:28:55;4.10;;;3.00;;
4754;SDS011;2391;47.212;7.542;2022-10-16T00:31:22;3.50;;;3.30;;
4754;SDS011;2391;47.212;7.542;2022-10-16T00:33:49;11.67;;;3.27;;
4754;SDS011;2391;47.212;7.542;2022-10-16T00:36:16;9.47;;;2.33;;
4754;SDS011;2391;47.212;7.542;2022-10-16T00:38:44;3.53;;;1.87;;
4754;SDS011;2391;47.212;7.542;2022-10-16T00:41:12;6.17;;;2.17;;
4754;SDS011;2391;47.212;7.542;2022-10-16T00:46:20;3.00;;;1.37;;
4754;SDS011;2391;47.212;7.542;2022-10-16T00:48:54;15.97;;;1.77;;
4754;SDS011;2391;47.212;7.542;2022-10-16T00:51:23;2.50;;;1.63;;
4754;SDS011;2391;47.212;7.542;2022-10-16T00:53:51;5.63;;;2.10;;
4754;SDS011;2391;47.212;7.542;2022-10-16T00:56:17;6.63;;;1.80;;
4754;SDS011;2391;47.212;7.542;2022-10-16T00:58:44;5.57;;;1.90;;
4754;SDS011;2391;47.212;7.542;2022-10-16T01:01:10;2.20;;;1.60;;
4754;SDS011;2391;47.212;7.542;2022-10-16T01:03:36;10.20;;;1.53;;
4754;SDS011;2391;47.212;7.542;2022-10-16T01:08:48;4.80;;;1.50;;
4754;SDS011;2391;47.212;7.542;2022-10-16T01:11:22;10.10;;;1.70;;
4754;SDS011;2391;47.212;7.542;2022-10-16T01:14:03;11.23;;;1.60;;
4754;SDS011;2391;47.212;7.542;2022-10-16T01:19:18;8.60;;;1.73;;
4754;SDS011;2391;47.212;7.542;2022-10-16T01:21:48;2.00;;;1.40;;
4754;SDS011;2391;47.212;7.542;2022-10-16T01:24:17;7.23;;;2.13;;
4754;SDS011;2391;47.212;7.542;2022-10-16T01:32:22;6.00;;;1.60;;
4754;SDS011;2391;47.212;7.542;2022-10-16T01:35:05;4.57;;;2.03;;
4754;SDS011;2391;47.212;7.542;2022-10-16T01:37:47;2.70;;;1.80;;
4754;SDS011;2391;47.212;7.542;2022-10-16T01:40:16;5.93;;;1.80;;
4754;SDS011;2391;47.212;7.542;2022-10-16T01:42:46;7.83;;;1.83;;
4754;SDS011;2391;47.212;7.542;2022-10-16T01:45:14;3.73;;;1.80;;
4754;SDS011;2391;47.212;7.542;2022-10-16T01:47:44;2.43;;;1.97;;
4754;SDS011;2391;47.212;7.542;2022-10-16T01:50:12;9.83;;;2.10;;
4754;SDS011;2391;47.212;7.542;2022-10-16T01:52:42;3.53;;;1.87;;
4754;SDS011;2391;47.212;7.542;2022-10-16T01:55:10;7.40;;;1.80;;
4754;SDS011;2391;47.212;7.542;2022-10-16T01:57:41;5.33;;;1.67;;
4754;SDS011;2391;47.212;7.542;2022-10-16T02:00:10;4.73;;;1.70;;
4754;SDS011;2391;47.212;7.542;2022-10-16T02:02:39;7.23;;;1.77;;
4754;SDS011;2391;47.212;7.542;2022-10-16T02:05:11;3.93;;;1.77;;
4754;SDS011;2391;47.212;7.542;2022-10-16T02:07:46;5.50;;;1.60;;
4754;SDS011;2391;47.212;7.542;2022-10-16T02:10:13;1.57;;;1.47;;
4754;SDS011;2391;47.212;7.542;2022-10-16T02:12:41;8.80;;;2.80;;
4754;SDS011;2391;47.212;7.542;2022-10-16T02:15:09;3.33;;;1.53;;
4754;SDS011;2391;47.212;7.542;2022-10-16T02:17:35;4.50;;;1.60;;
4754;SDS011;2391;47.212;7.542;2022-10-16T02:20:02;1.80;;;1.50;;
4754;SDS011;2391;47.212;7.542;2022-10-16T02:22:32;5.93;;;1.67;;
4754;SDS011;2391;47.212;7.542;2022-10-16T02:27:33;2.20;;;1.53;;
4754;SDS011;2391;47.212;7.542;2022-10-16T02:30:04;3.70;;;2.00;;
4754;SDS011;2391;47.212;7.542;2022-10-16T02:32:35;3.83;;;1.60;;
4754;SDS011;2391;47.212;7.542;2022-10-16T02:35:03;4.83;;;1.60;;
4754;SDS011;2391;47.212;7.542;2022-10-16T02:37:30;5.47;;;1.80;;
4754;SDS011;2391;47.212;7.542;2022-10-16T02:39:57;3.53;;;1.60;;
4754;SDS011;2391;47.212;7.542;2022-10-16T02:42:33;3.63;;;1.40;;
4754;SDS011;2391;47.212;7.542;2022-10-16T02:45:02;2.43;;;1.30;;
4754;SDS011;2391;47.212;7.542;2022-10-16T02:47:30;3.33;;;1.43;;
4754;SDS011;2391;47.212;7.542;2022-10-16T02:49:56;6.40;;;2.60;;
4754;SDS011;2391;47.212;7.542;2022-10-16T02:52:22;1.73;;;1.50;;
4754;SDS011;2391;47.212;7.542;2022-10-16T02:54:48;2.10;;;1.90;;
4754;SDS011;2391;47.212;7.542;2022-10-16T02:57:14;3.40;;;1.63;;
4754;SDS011;2391;47.212;7.542;2022-10-16T02:59:40;3.33;;;1.70;;
4754;SDS011;2391;47.212;7.542;2022-10-16T03:02:07;3.60;;;1.57;;
4754;SDS011;2391;47.212;7.542;2022-10-16T03:04:33;1.60;;;1.50;;
4754;SDS011;2391;47.212;7.542;2022-10-16T03:06:59;3.90;;;1.53;;
4754;SDS011;2391;47.212;7.542;2022-10-16T03:09:25;2.50;;;1.50;;
4754;SDS011;2391;47.212;7.542;2022-10-16T03:11:51;18.83;;;1.93;;
4754;SDS011;2391;47.212;7.542;2022-10-16T03:14:17;4.87;;;1.67;;
4754;SDS011;2391;47.212;7.542;2022-10-16T03:16:43;9.20;;;1.60;;
4754;SDS011;2391;47.212;7.542;2022-10-16T03:19:09;1.50;;;1.40;;
4754;SDS011;2391;47.212;7.542;2022-10-16T03:21:35;4.60;;;2.10;;
4754;SDS011;2391;47.212;7.542;2022-10-16T03:24:01;1.50;;;1.40;;
4754;SDS011;2391;47.212;7.542;2022-10-16T03:26:27;7.23;;;1.67;;
4754;SDS011;2391;47.212;7.542;2022-10-16T03:28:53;1.33;;;1.20;;
4754;SDS011;2391;47.212;7.542;2022-10-16T03:31:19;11.13;;;1.83;;
4754;SDS011;2391;47.212;7.542;2022-10-16T03:33:45;2.20;;;1.60;;
4754;SDS011;2391;47.212;7.542;2022-10-16T03:36:11;6.77;;;2.23;;
4754;SDS011;2391;47.212;7.542;2022-10-16T03:38:37;8.37;;;1.80;;
4754;SDS011;2391;47.212;7.542;2022-10-16T03:41:03;4.40;;;1.43;;
4754;SDS011;2391;47.212;7.542;2022-10-16T03:43:29;1.53;;;1.40;;
4754;SDS011;2391;47.212;7.542;2022-10-16T03:45:55;3.47;;;1.33;;
4754;SDS011;2391;47.212;7.542;2022-10-16T03:48:21;12.07;;;1.50;;
4754;SDS011;2391;47.212;7.542;2022-10-16T03:50:47;3.70;;;1.23;;
4754;SDS011;2391;47.212;7.542;2022-10-16T03:53:14;6.00;;;1.57;;
4754;SDS011;2391;47.212;7.542;2022-10-16T03:55:41;5.67;;;1.50;;
4754;SDS011;2391;47.212;7.542;2022-10-16T03:58:07;2.13;;;1.43;;
4754;SDS011;2391;47.212;7.542;2022-10-16T04:00:33;5.20;;;1.20;;
4754;SDS011;2391;47.212;7.542;2022-10-16T04:03:00;8.97;;;1.50;;
4754;SDS011;2391;47.212;7.542;2022-10-16T04:05:26;1.43;;;1.23;;
4754;SDS011;2391;47.212;7.542;2022-10-16T04:07:52;11.87;;;1.10;;
4754;SDS011;2391;47.212;7.542;2022-10-16T04:10:18;5.70;;;1.30;;
4754;SDS011;2391;47.212;7.542;2022-10-16T04:12:44;3.17;;;1.10;;
4754;SDS011;2391;47.212;7.542;2022-10-16T04:15:10;3.03;;;1.00;;
4754;SDS011;2391;47.212;7.542;2022-10-16T04:17:36;1.97;;;1.43;;
4754;SDS011;2391;47.212;7.542;2022-10-16T04:20:02;3.00;;;0.90;;
4754;SDS011;2391;47.212;7.542;2022-10-16T04:22:29;2.13;;;1.43;;
4754;SDS011;2391;47.212;7.542;2022-10-16T04:24:55;10.10;;;1.40;;
4754;SDS011;2391;47.212;7.542;2022-10-16T04:27:20;6.90;;;1.27;;
4754;SDS011;2391;47.212;7.542;2022-10-16T04:29:46;3.43;;;1.27;;
4754;SDS011;2391;47.212;7.542;2022-10-16T04:32:12;4.10;;;1.30;;
4754;SDS011;2391;47.212;7.542;2022-10-16T04:34:38;5.77;;;1.20;;
4754;SDS011;2391;47.212;7.542;2022-10-16T04:37:05;1.27;;;1.17;;
4754;SDS011;2391;47.212;7.542;2022-10-16T04:39:31;5.63;;;1.50;;
4754;SDS011;2391;47.212;7.542;2022-10-16T04:41:57;6.97;;;1.00;;
4754;SDS011;2391;47.212;7.542;2022-10-16T04:44:23;5.67;;;1.50;;
4754;SDS011;2391;47.212;7.542;2022-10-16T04:46:52;2.40;;;1.50;;
4754;SDS011;2391;47.212;7.542;2022-10-16T04:49:18;2.40;;;1.27;;
4754;SDS011;2391;47.212;7.542;2022-10-16T04:51:44;10.80;;;1.70;;
4754;SDS011;2391;47.212;7.542;2022-10-16T04:54:10;5.63;;;1.40;;
4754;SDS011;2391;47.212;7.542;2022-10-16T04:56:36;3.40;;;1.40;;
4754;SDS011;2391;47.212;7.542;2022-10-16T04:59:04;4.30;;;1.40;;
4754;SDS011;2391;47.212;7.542;2022-10-16T05:01:30;3.07;;;1.20;;
4754;SDS011;2391;47.212;7.542;2022-10-16T05:03:56;10.50;;;2.40;;
4754;SDS011;2391;47.212;7.542;2022-10-16T05:06:22;4.77;;;1.37;;
4754;SDS011;2391;47.212;7.542;2022-10-16T05:08:48;4.33;;;1.40;;
4754;SDS011;2391;47.212;7.542;2022-10-16T05:11:14;5.30;;;1.47;;
4754;SDS011;2391;47.212;7.542;2022-10-16T05:13:40;1.43;;;1.33;;
4754;SDS011;2391;47.212;7.542;2022-10-16T05:16:06;5.80;;;1.13;;
4754;SDS011;2391;47.212;7.542;2022-10-16T05:18:32;11.70;;;1.90;;
4754;SDS011;2391;47.212;7.542;2022-10-16T05:20:58;2.10;;;1.57;;
4754;SDS011;2391;47.212;7.542;2022-10-16T05:23:24;4.23;;;1.87;;
4754;SDS011;2391;47.212;7.542;2022-10-16T05:25:56;1.50;;;1.40;;
4754;SDS011;2391;47.212;7.542;2022-10-16T05:28:24;5.07;;;1.60;;
4754;SDS011;2391;47.212;7.542;2022-10-16T05:30:52;5.60;;;1.90;;
4754;SDS011;2391;47.212;7.542;2022-10-16T05:33:21;1.30;;;1.20;;
4754;SDS011;2391;47.212;7.542;2022-10-16T05:35:49;7.20;;;1.50;;
4754;SDS011;2391;47.212;7.542;2022-10-16T05:38:16;3.80;;;1.20;;
4754;SDS011;2391;47.212;7.542;2022-10-16T05:40:43;3.40;;;1.43;;
4754;SDS011;2391;47.212;7.542;2022-10-16T05:43:11;4.77;;;1.20;;
4754;SDS011;2391;47.212;7.542;2022-10-16T05:45:37;1.33;;;1.27;;
4754;SDS011;2391;47.212;7.542;2022-10-16T05:48:03;7.30;;;1.37;;
4754;SDS011;2391;47.212;7.542;2022-10-16T05:50:29;3.27;;;1.30;;
4754;SDS011;2391;47.212;7.542;2022-10-16T05:52:55;3.37;;;1.73;;
4754;SDS011;2391;47.212;7.542;2022-10-16T05:55:22;4.43;;;1.40;;
4754;SDS011;2391;47.212;7.542;2022-10-16T05:57:48;4.37;;;1.97;;
4754;SDS011;2391;47.212;7.542;2022-10-16T06:00:17;8.87;;;1.60;;
4754;SDS011;2391;47.212;7.542;2022-10-16T06:02:43;1.87;;;1.10;;
4754;SDS011;2391;47.212;7.542;2022-10-16T06:05:09;9.73;;;1.27;;
4754;SDS011;2391;47.212;7.542;2022-10-16T06:07:35;2.60;;;1.20;;
4754;SDS011;2391;47.212;7.542;2022-10-16T06:10:01;8.07;;;1.27;;
4754;SDS011;2391;47.212;7.542;2022-10-16T06:12:28;2.43;;;1.10;;
4754;SDS011;2391;47.212;7.542;2022-10-16T06:14:54;3.17;;;1.20;;
4754;SDS011;2391;47.212;7.542;2022-10-16T06:17:20;5.43;;;1.20;;
4754;SDS011;2391;47.212;7.542;2022-10-16T06:19:46;1.40;;;1.30;;
4754;SDS011;2391;47.212;7.542;2022-10-16T06:22:12;12.60;;;1.60;;
4754;SDS011;2391;47.212;7.542;2022-10-16T06:24:38;4.47;;;1.07;;
4754;SDS011;2391;47.212;7.542;2022-10-16T06:27:04;3.27;;;1.10;;
4754;SDS011;2391;47.212;7.542;2022-10-16T06:29:30;1.83;;;1.30;;
4754;SDS011;2391;47.212;7.542;2022-10-16T06:31:56;2.80;;;1.63;;
4754;SDS011;2391;47.212;7.542;2022-10-16T06:34:22;4.30;;;1.57;;
4754;SDS011;2391;47.212;7.542;2022-10-16T06:36:48;6.67;;;1.10;;
4754;SDS011;2391;47.212;7.542;2022-10-16T06:39:13;7.47;;;1.43;;
4754;SDS011;2391;47.212;7.542;2022-10-16T06:41:39;10.03;;;2.00;;
4754;SDS011;2391;47.212;7.542;2022-10-16T06:44:05;2.40;;;1.23;;
4754;SDS011;2391;47.212;7.542;2022-10-16T06:46:33;2.90;;;1.20;;
4754;SDS011;2391;47.212;7.542;2022-10-16T06:48:59;6.23;;;1.30;;
4754;SDS011;2391;47.212;7.542;2022-10-16T06:51:25;14.73;;;1.47;;
4754;SDS011;2391;47.212;7.542;2022-10-16T06:53:51;2.23;;;1.07;;
4754;SDS011;2391;47.212;7.542;2022-10-16T06:56:23;3.13;;;1.20;;
4754;SDS011;2391;47.212;7.542;2022-10-16T06:58:50;4.97;;;2.43;;
4754;SDS011;2391;47.212;7.542;2022-10-16T07:01:18;2.93;;;1.20;;
4754;SDS011;2391;47.212;7.542;2022-10-16T07:03:45;2.50;;;1.23;;
4754;SDS011;2391;47.212;7.542;2022-10-16T07:06:13;8.13;;;1.33;;
4754;SDS011;2391;47.212;7.542;2022-10-16T07:08:41;3.63;;;1.10;;
4754;SDS011;2391;47.212;7.542;2022-10-16T07:11:10;8.07;;;1.60;;
4754;SDS011;2391;47.212;7.542;2022-10-16T07:13:38;4.87;;;1.50;;
4754;SDS011;2391;47.212;7.542;2022-10-16T07:16:06;7.97;;;1.60;;
4754;SDS011;2391;47.212;7.542;2022-10-16T07:18:37;1.63;;;1.53;;
4754;SDS011;2391;47.212;7.542;2022-10-16T07:21:08;5.70;;;1.53;;
4754;SDS011;2391;47.212;7.542;2022-10-16T07:23:36;3.67;;;1.50;;
4754;SDS011;2391;47.212;7.542;2022-10-16T07:26:04;15.70;;;1.77;;
4754;SDS011;2391;47.212;7.542;2022-10-16T07:28:30;1.47;;;1.10;;
4754;SDS011;2391;47.212;7.542;2022-10-16T07:31:01;6.07;;;1.97;;
4754;SDS011;2391;47.212;7.542;2022-10-16T07:33:31;3.40;;;1.40;;
4754;SDS011;2391;47.212;7.542;2022-10-16T07:35:57;4.07;;;1.17;;
4754;SDS011;2391;47.212;7.542;2022-10-16T07:38:23;3.43;;;1.67;;
4754;SDS011;2391;47.212;7.542;2022-10-16T07:40:59;5.20;;;1.50;;
4754;SDS011;2391;47.212;7.542;2022-10-16T07:43:25;8.30;;;1.97;;
4754;SDS011;2391;47.212;7.542;2022-10-16T07:45:52;4.20;;;1.60;;
4754;SDS011;2391;47.212;7.542;2022-10-16T07:48:20;11.73;;;1.63;;
4754;SDS011;2391;47.212;7.542;2022-10-16T07:50:47;2.33;;;1.80;;
4754;SDS011;2391;47.212;7.542;2022-10-16T07:53:13;3.83;;;1.63;;
4754;SDS011;2391;47.212;7.542;2022-10-16T07:55:39;8.40;;;2.10;;
4754;SDS011;2391;47.212;7.542;2022-10-16T07:58:05;9.93;;;2.07;;
4754;SDS011;2391;47.212;7.542;2022-10-16T08:00:31;1.80;;;1.40;;
4754;SDS011;2391;47.212;7.542;2022-10-16T08:02:58;3.27;;;1.57;;
4754;SDS011;2391;47.212;7.542;2022-10-16T08:05:26;2.17;;;1.50;;
4754;SDS011;2391;47.212;7.542;2022-10-16T08:07:53;9.23;;;1.87;;
4754;SDS011;2391;47.212;7.542;2022-10-16T08:10:21;18.27;;;1.90;;
4754;SDS011;2391;47.212;7.542;2022-10-16T08:12:48;3.07;;;2.00;;
4754;SDS011;2391;47.212;7.542;2022-10-16T08:15:14;3.10;;;1.70;;
4754;SDS011;2391;47.212;7.542;2022-10-16T08:17:40;6.03;;;2.20;;
4754;SDS011;2391;47.212;7.542;2022-10-16T08:20:06;4.13;;;2.30;;
4754;SDS011;2391;47.212;7.542;2022-10-16T08:22:33;2.93;;;2.67;;
4754;SDS011;2391;47.212;7.542;2022-10-16T08:24:59;2.33;;;2.13;;
4754;SDS011;2391;47.212;7.542;2022-10-16T08:27:30;18.77;;;2.50;;
4754;SDS011;2391;47.212;7.542;2022-10-16T08:29:56;4.90;;;1.63;;
4754;SDS011;2391;47.212;7.542;2022-10-16T08:35:40;3.20;;;1.80;;
4754;SDS011;2391;47.212;7.542;2022-10-16T08:38:06;5.10;;;1.90;;
4754;SDS011;2391;47.212;7.542;2022-10-16T08:40:35;12.00;;;1.80;;
4754;SDS011;2391;47.212;7.542;2022-10-16T08:48:34;3.33;;;1.80;;
4754;SDS011;2391;47.212;7.542;2022-10-16T08:51:03;6.73;;;2.20;;
4754;SDS011;2391;47.212;7.542;2022-10-16T08:56:33;4.23;;;1.37;;
4754;SDS011;2391;47.212;7.542;2022-10-16T08:59:06;4.60;;;1.77;;
4754;SDS011;2391;47.212;7.542;2022-10-16T09:01:41;2.20;;;1.77;;
4754;SDS011;2391;47.212;7.542;2022-10-16T09:23:19;2.20;;;1.53;;
4754;SDS011;2391;47.212;7.542;2022-10-16T09:25:52;10.27;;;1.60;;
4754;SDS011;2391;47.212;7.542;2022-10-16T09:28:19;4.63;;;0.83;;
4754;SDS011;2391;47.212;7.542;2022-10-16T09:30:45;2.60;;;1.30;;
4754;SDS011;2391;47.212;7.542;2022-10-16T09:33:14;7.97;;;1.40;;
4754;SDS011;2391;47.212;7.542;2022-10-16T09:35:43;1.20;;;1.10;;
4754;SDS011;2391;47.212;7.542;2022-10-16T09:43:55;1.70;;;1.60;;
4754;SDS011;2391;47.212;7.542;2022-10-16T09:49:02;1.03;;;1.03;;
4754;SDS011;2391;47.212;7.542;2022-10-16T09:51:36;2.30;;;1.47;;
4754;SDS011;2391;47.212;7.542;2022-10-16T09:54:17;4.53;;;1.60;;
4754;SDS011;2391;47.212;7.542;2022-10-16T09:56:35;2.40;;;1.63;;
4754;SDS011;2391;47.212;7.542;2022-10-16T09:59:11;3.43;;;1.20;;
4754;SDS011;2391;47.212;7.542;2022-10-16T10:01:37;1.97;;;1.37;;
4754;SDS011;2391;47.212;7.542;2022-10-16T10:04:05;5.80;;;1.40;;
4754;SDS011;2391;47.212;7.542;2022-10-16T10:06:33;6.73;;;2.33;;
4754;SDS011;2391;47.212;7.542;2022-10-16T10:09:21;1.23;;;1.13;;
4754;SDS011;2391;47.212;7.542;2022-10-16T10:11:42;1.13;;;1.00;;
4754;SDS011;2391;47.212;7.542;2022-10-16T10:14:20;4.33;;;1.30;;
4754;SDS011;2391;47.212;7.542;2022-10-16T10:16:49;2.30;;;1.40;;
4754;SDS011;2391;47.212;7.542;2022-10-16T10:19:20;1.27;;;1.17;;
4754;SDS011;2391;47.212;7.542;2022-10-16T10:21:49;2.70;;;1.30;;
4754;SDS011;2391;47.212;7.542;2022-10-16T10:24:16;3.37;;;1.40;;
4754;SDS011;2391;47.212;7.542;2022-10-16T10:32:05;1.93;;;0.90;;
4754;SDS011;2391;47.212;7.542;2022-10-16T10:34:54;2.93;;;0.90;;
4754;SDS011;2391;47.212;7.542;2022-10-16T10:53:32;0.97;;;0.80;;
4754;SDS011;2391;47.212;7.542;2022-10-16T10:56:09;1.10;;;1.00;;
4754;SDS011;2391;47.212;7.542;2022-10-16T11:07:05;5.77;;;0.83;;
4754;SDS011;2391;47.212;7.542;2022-10-16T11:09:47;0.80;;;0.80;;
4754;SDS011;2391;47.212;7.542;2022-10-16T11:17:24;3.63;;;1.17;;
4754;SDS011;2391;47.212;7.542;2022-10-16T11:20:00;1.93;;;1.00;;
4754;SDS011;2391;47.212;7.542;2022-10-16T11:22:51;2.87;;;0.90;;
4754;SDS011;2391;47.212;7.542;2022-10-16T11:25:20;4.03;;;0.90;;
4754;SDS011;2391;47.212;7.542;2022-10-16T11:27:50;11.13;;;1.10;;
4754;SDS011;2391;47.212;7.542;2022-10-16T11:38:55;2.43;;;0.90;;
4754;SDS011;2391;47.212;7.542;2022-10-16T11:49:59;1.17;;;0.90;;
4754;SDS011;2391;47.212;7.542;2022-10-16T11:52:33;0.83;;;0.80;;
4754;SDS011;2391;47.212;7.542;2022-10-16T11:55:20;2.97;;;1.00;;
4754;SDS011;2391;47.212;7.542;2022-10-16T11:57:52;2.30;;;0.90;;
4754;SDS011;2391;47.212;7.542;2022-10-16T12:00:24;2.50;;;1.03;;
4754;SDS011;2391;47.212;7.542;2022-10-16T12:03:05;1.13;;;0.90;;
4754;SDS011;2391;47.212;7.542;2022-10-16T12:08:28;3.27;;;0.90;;
4754;SDS011;2391;47.212;7.542;2022-10-16T12:11:03;2.80;;;1.00;;
4754;SDS011;2391;47.212;7.542;2022-10-16T12:16:07;1.50;;;1.00;;
4754;SDS011;2391;47.212;7.542;2022-10-16T12:18:42;0.93;;;0.93;;
4754;SDS011;2391;47.212;7.542;2022-10-16T12:21:09;1.27;;;1.00;;
4754;SDS011;2391;47.212;7.542;2022-10-16T12:23:46;3.70;;;1.00;;
4754;SDS011;2391;47.212;7.542;2022-10-16T12:26:14;1.90;;;1.10;;
4754;SDS011;2391;47.212;7.542;2022-10-16T12:28:56;1.37;;;1.00;;
4754;SDS011;2391;47.212;7.542;2022-10-16T12:31:25;2.33;;;1.10;;
4754;SDS011;2391;47.212;7.542;2022-10-16T12:34:01;3.17;;;1.07;;
4754;SDS011;2391;47.212;7.542;2022-10-16T12:36:29;3.07;;;1.60;;
4754;SDS011;2391;47.212;7.542;2022-10-16T12:38:57;2.93;;;1.67;;
4754;SDS011;2391;47.212;7.542;2022-10-16T12:43:54;2.00;;;0.80;;
4754;SDS011;2391;47.212;7.542;2022-10-16T12:46:22;1.20;;;0.93;;
4754;SDS011;2391;47.212;7.542;2022-10-16T12:49:28;3.07;;;1.20;;
4754;SDS011;2391;47.212;7.542;2022-10-16T12:51:41;1.20;;;0.90;;
4754;SDS011;2391;47.212;7.542;2022-10-16T12:54:12;3.33;;;1.37;;
4754;SDS011;2391;47.212;7.542;2022-10-16T13:05:47;1.43;;;1.27;;
4754;SDS011;2391;47.212;7.542;2022-10-16T13:19:45;2.70;;;1.00;;
4754;SDS011;2391;47.212;7.542;2022-10-16T13:24:59;1.80;;;1.10;;
4754;SDS011;2391;47.212;7.542;2022-10-16T13:30:13;2.37;;;1.10;;
4754;SDS011;2391;47.212;7.542;2022-10-16T13:32:43;1.07;;;1.07;;
4754;SDS011;2391;47.212;7.542;2022-10-16T13:35:24;1.20;;;1.10;;
4754;SDS011;2391;47.212;7.542;2022-10-16T13:38:02;1.97;;;1.10;;
4754;SDS011;2391;47.212;7.542;2022-10-16T13:40:47;1.83;;;0.90;;
4754;SDS011;2391;47.212;7.542;2022-10-16T13:43:16;1.03;;;0.93;;
4754;SDS011;2391;47.212;7.542;2022-10-16T13:45:52;0.90;;;0.90;;
4754;SDS011;2391;47.212;7.542;2022-10-16T13:48:20;2.70;;;0.93;;
4754;SDS011;2391;47.212;7.542;2022-10-16T13:51:02;5.13;;;1.00;;
4754;SDS011;2391;47.212;7.542;2022-10-16T13:53:34;1.67;;;0.80;;
4754;SDS011;2391;47.212;7.542;2022-10-16T13:56:05;5.27;;;1.27;;
4754;SDS011;2391;47.212;7.542;2022-10-16T13:58:33;3.80;;;0.80;;
4754;SDS011;2391;47.212;7.542;2022-10-16T14:01:00;2.47;;;1.10;;
4754;SDS011;2391;47.212;7.542;2022-10-16T14:03:28;1.33;;;1.23;;
4754;SDS011;2391;47.212;7.542;2022-10-16T14:05:56;1.30;;;1.10;;
4754;SDS011;2391;47.212;7.542;2022-10-16T14:08:25;2.93;;;1.07;;
4754;SDS011;2391;47.212;7.542;2022-10-16T14:10:54;6.93;;;1.33;;
4754;SDS011;2391;47.212;7.542;2022-10-16T14:16:07;1.20;;;1.00;;
4754;SDS011;2391;47.212;7.542;2022-10-16T14:18:37;1.30;;;0.87;;
4754;SDS011;2391;47.212;7.542;2022-10-16T14:21:05;1.90;;;0.93;;
4754;SDS011;2391;47.212;7.542;2022-10-16T14:28:40;1.83;;;1.00;;
4754;SDS011;2391;47.212;7.542;2022-10-16T14:33:58;1.63;;;0.90;;
4754;SDS011;2391;47.212;7.542;2022-10-16T14:36:26;1.90;;;1.20;;
4754;SDS011;2391;47.212;7.542;2022-10-16T14:39:03;2.07;;;0.90;;
4754;SDS011;2391;47.212;7.542;2022-10-16T14:41:32;1.30;;;0.80;;
4754;SDS011;2391;47.212;7.542;2022-10-16T14:44:02;3.50;;;1.20;;
4754;SDS011;2391;47.212;7.542;2022-10-16T14:46:31;8.90;;;1.00;;
4754;SDS011;2391;47.212;7.542;2022-10-16T14:51:38;2.70;;;1.07;;
4754;SDS011;2391;47.212;7.542;2022-10-16T14:54:11;2.40;;;1.00;;
4754;SDS011;2391;47.212;7.542;2022-10-16T14:56:41;3.10;;;1.10;;
4754;SDS011;2391;47.212;7.542;2022-10-16T14:59:28;8.23;;;1.20;;
4754;SDS011;2391;47.212;7.542;2022-10-16T15:02:14;4.73;;;1.10;;
4754;SDS011;2391;47.212;7.542;2022-10-16T15:04:36;2.13;;;1.00;;
4754;SDS011;2391;47.212;7.542;2022-10-16T15:07:02;1.10;;;1.00;;
4754;SDS011;2391;47.212;7.542;2022-10-16T15:09:28;1.07;;;1.03;;
4754;SDS011;2391;47.212;7.542;2022-10-16T15:11:54;2.47;;;0.93;;
4754;SDS011;2391;47.212;7.542;2022-10-16T15:14:20;2.13;;;1.10;;
4754;SDS011;2391;47.212;7.542;2022-10-16T15:16:46;2.17;;;1.20;;
4754;SDS011;2391;47.212;7.542;2022-10-16T15:19:12;7.90;;;1.20;;
4754;SDS011;2391;47.212;7.542;2022-10-16T15:21:38;2.60;;;0.97;;
4754;SDS011;2391;47.212;7.542;2022-10-16T15:24:05;1.73;;;1.17;;
4754;SDS011;2391;47.212;7.542;2022-10-16T15:26:33;5.07;;;1.40;;
4754;SDS011;2391;47.212;7.542;2022-10-16T15:28:59;1.47;;;0.90;;
4754;SDS011;2391;47.212;7.542;2022-10-16T15:31:25;2.77;;;1.77;;
4754;SDS011;2391;47.212;7.542;2022-10-16T15:33:51;1.10;;;1.00;;
4754;SDS011;2391;47.212;7.542;2022-10-16T15:36:33;1.00;;;0.90;;
4754;SDS011;2391;47.212;7.542;2022-10-16T15:39:03;2.80;;;1.17;;
4754;SDS011;2391;47.212;7.542;2022-10-16T15:41:30;1.90;;;1.03;;
4754;SDS011;2391;47.212;7.542;2022-10-16T15:43:56;7.40;;;1.17;;
4754;SDS011;2391;47.212;7.542;2022-10-16T15:46:22;0.97;;;0.97;;
4754;SDS011;2391;47.212;7.542;2022-10-16T15:48:50;1.20;;;1.00;;
4754;SDS011;2391;47.212;7.542;2022-10-16T15:51:17;1.73;;;1.03;;
4754;SDS011;2391;47.212;7.542;2022-10-16T15:53:44;14.40;;;2.47;;
4754;SDS011;2391;47.212;7.542;2022-10-16T15:56:11;1.00;;;0.83;;
4754;SDS011;2391;47.212;7.542;2022-10-16T15:58:38;1.10;;;1.00;;
4754;SDS011;2391;47.212;7.542;2022-10-16T16:01:04;1.13;;;0.90;;
4754;SDS011;2391;47.212;7.542;2022-10-16T16:03:31;2.80;;;0.83;;
4754;SDS011;2391;47.212;7.542;2022-10-16T16:05:57;2.10;;;1.40;;
4754;SDS011;2391;47.212;7.542;2022-10-16T16:08:23;2.63;;;1.47;;
4754;SDS011;2391;47.212;7.542;2022-10-16T16:11:03;3.33;;;1.40;;
4754;SDS011;2391;47.212;7.542;2022-10-16T16:13:31;1.60;;;1.50;;
4754;SDS011;2391;47.212;7.542;2022-10-16T16:15:57;9.30;;;1.80;;
4754;SDS011;2391;47.212;7.542;2022-10-16T16:18:23;3.67;;;2.10;;
4754;SDS011;2391;47.212;7.542;2022-10-16T16:20:54;1.83;;;1.70;;
4754;SDS011;2391;47.212;7.542;2022-10-16T16:23:20;2.80;;;1.53;;
4754;SDS011;2391;47.212;7.542;2022-10-16T16:26:33;4.63;;;2.43;;
4754;SDS011;2391;47.212;7.542;2022-10-16T16:28:33;5.57;;;2.20;;
4754;SDS011;2391;47.212;7.542;2022-10-16T16:31:00;2.63;;;2.43;;
4754;SDS011;2391;47.212;7.542;2022-10-16T16:33:26;3.00;;;1.90;;
4754;SDS011;2391;47.212;7.542;2022-10-16T16:35:55;5.80;;;2.40;;
4754;SDS011;2391;47.212;7.542;2022-10-16T16:38:23;14.27;;;4.17;;
4754;SDS011;2391;47.212;7.542;2022-10-16T16:40:49;15.13;;;3.07;;
4754;SDS011;2391;47.212;7.542;2022-10-16T16:43:15;20.10;;;4.20;;
4754;SDS011;2391;47.212;7.542;2022-10-16T16:45:41;9.13;;;2.20;;
4754;SDS011;2391;47.212;7.542;2022-10-16T16:48:06;11.67;;;2.47;;
4754;SDS011;2391;47.212;7.542;2022-10-16T16:50:38;3.67;;;1.80;;
4754;SDS011;2391;47.212;7.542;2022-10-16T16:53:04;2.70;;;1.70;;
4754;SDS011;2391;47.212;7.542;2022-10-16T16:55:30;13.20;;;3.83;;
4754;SDS011;2391;47.212;7.542;2022-10-16T16:57:57;22.03;;;3.33;;
4754;SDS011;2391;47.212;7.542;2022-10-16T17:00:23;2.40;;;1.97;;
4754;SDS011;2391;47.212;7.542;2022-10-16T17:02:49;4.23;;;2.17;;
4754;SDS011;2391;47.212;7.542;2022-10-16T17:05:16;5.77;;;1.93;;
4754;SDS011;2391;47.212;7.542;2022-10-16T17:07:42;7.00;;;1.93;;
4754;SDS011;2391;47.212;7.542;2022-10-16T17:10:08;3.30;;;1.83;;
4754;SDS011;2391;47.212;7.542;2022-10-16T17:12:35;5.80;;;2.07;;
4754;SDS011;2391;47.212;7.542;2022-10-16T17:15:01;2.10;;;1.90;;
4754;SDS011;2391;47.212;7.542;2022-10-16T17:17:27;5.90;;;2.60;;
4754;SDS011;2391;47.212;7.542;2022-10-16T17:19:53;3.73;;;1.93;;
4754;SDS011;2391;47.212;7.542;2022-10-16T17:22:19;4.53;;;2.00;;
4754;SDS011;2391;47.212;7.542;2022-10-16T17:24:47;3.40;;;2.50;;
4754;SDS011;2391;47.212;7.542;2022-10-16T17:27:17;2.53;;;2.30;;
4754;SDS011;2391;47.212;7.542;2022-10-16T17:29:44;5.40;;;2.60;;
4754;SDS011;2391;47.212;7.542;2022-10-16T17:32:10;6.30;;;3.13;;
4754;SDS011;2391;47.212;7.542;2022-10-16T17:34:36;8.00;;;3.00;;
4754;SDS011;2391;47.212;7.542;2022-10-16T17:37:02;9.00;;;2.87;;
4754;SDS011;2391;47.212;7.542;2022-10-16T17:39:28;11.70;;;2.33;;
4754;SDS011;2391;47.212;7.542;2022-10-16T17:41:54;7.30;;;2.10;;
4754;SDS011;2391;47.212;7.542;2022-10-16T17:44:20;2.40;;;1.97;;
4754;SDS011;2391;47.212;7.542;2022-10-16T17:46:47;7.40;;;3.40;;
4754;SDS011;2391;47.212;7.542;2022-10-16T17:49:14;6.80;;;2.13;;
4754;SDS011;2391;47.212;7.542;2022-10-16T17:51:40;2.03;;;1.93;;
4754;SDS011;2391;47.212;7.542;2022-10-16T17:54:07;7.17;;;2.57;;
4754;SDS011;2391;47.212;7.542;2022-10-16T17:56:33;3.47;;;2.20;;
4754;SDS011;2391;47.212;7.542;2022-10-16T17:59:00;3.30;;;2.40;;